createdAt,value
2019-02-19T00:00:48.343Z,100548.23
2019-02-19T00:03:15.167Z,100547.69
2019-02-19T00:05:42.058Z,100549.72
2019-02-19T00:08:08.935Z,100538.09
2019-02-19T00:10:35.793Z,100536.95
2019-02-19T00:13:02.742Z,100542.75
2019-02-19T00:15:29.673Z,100540.02
2019-02-19T00:17:56.614Z,100540.80
2019-02-19T00:20:23.542Z,100541.97
2019-02-19T00:22:50.412Z,100534.67
2019-02-19T00:25:17.270Z,100534.95
2019-02-19T00:27:44.155Z,100549.16
2019-02-19T00:30:11.023Z,100550.09
2019-02-19T00:32:37.966Z,100548.95
2019-02-19T00:35:04.856Z,100551.06
2019-02-19T00:37:31.739Z,100543.89
2019-02-19T00:39:58.662Z,100541.03
2019-02-19T00:42:25.495Z,100538.30
2019-02-19T00:44:52.395Z,100531.45
2019-02-19T00:47:19.277Z,100532.66
2019-02-19T00:49:46.168Z,100526.56
2019-02-19T00:52:13.044Z,100533.48
2019-02-19T00:54:39.883Z,100527.69
2019-02-19T00:57:06.779Z,100538.03
2019-02-19T00:59:34.406Z,100535.68
2019-02-19T01:02:01.306Z,100533.02
2019-02-19T01:04:28.203Z,100541.33
2019-02-19T01:06:55.086Z,100528.70
2019-02-19T01:09:21.974Z,100539.41
2019-02-19T01:11:48.851Z,100534.64
2019-02-19T01:14:15.731Z,100537.41
2019-02-19T01:16:42.659Z,100538.31
2019-02-19T01:19:09.550Z,100532.98
2019-02-19T01:21:36.413Z,100538.95
2019-02-19T01:24:03.294Z,100533.43
2019-02-19T01:26:30.171Z,100535.94
2019-02-19T01:28:58.340Z,100538.52
2019-02-19T01:31:23.935Z,100539.06
2019-02-19T01:33:50.841Z,100538.22
2019-02-19T01:36:17.706Z,100536.23
2019-02-19T01:38:44.582Z,100535.58
2019-02-19T01:41:11.449Z,100530.72
2019-02-19T01:43:38.327Z,100532.77
2019-02-19T01:46:05.198Z,100533.02
2019-02-19T01:48:32.095Z,100534.88
2019-02-19T01:50:58.966Z,100532.09
2019-02-19T01:53:25.838Z,100531.72
2019-02-19T01:55:52.707Z,100530.30
2019-02-19T01:58:19.590Z,100534.11
2019-02-19T02:00:46.475Z,100533.30
2019-02-19T02:03:13.366Z,100527.83
2019-02-19T02:05:40.242Z,100526.83
2019-02-19T02:08:07.136Z,100530.34
2019-02-19T02:10:34.006Z,100529.30
2019-02-19T02:13:00.940Z,100524.66
2019-02-19T02:15:27.783Z,100525.09
2019-02-19T02:17:54.670Z,100526.62
2019-02-19T02:20:21.536Z,100520.23
2019-02-19T02:22:48.418Z,100522.59
2019-02-19T02:25:15.340Z,100523.41
2019-02-19T02:27:42.228Z,100521.09
2019-02-19T02:30:09.102Z,100517.88
2019-02-19T02:32:35.976Z,100518.55
2019-02-19T02:35:02.916Z,100510.83
2019-02-19T02:37:29.738Z,100517.06
2019-02-19T02:39:56.631Z,100517.23
2019-02-19T02:42:23.488Z,100524.97
2019-02-19T02:44:50.375Z,100521.77
2019-02-19T02:47:17.227Z,100521.30
2019-02-19T02:49:44.159Z,100524.97
2019-02-19T02:52:10.979Z,100521.64
2019-02-19T02:54:38.946Z,100524.80
2019-02-19T02:57:09.320Z,100528.09
2019-02-19T02:59:36.202Z,100522.22
2019-02-19T03:02:03.114Z,100520.23
2019-02-19T03:04:30.017Z,100523.75
2019-02-19T03:07:06.809Z,100525.47
2019-02-19T03:09:33.762Z,100517.11
2019-02-19T03:12:00.630Z,100522.17
2019-02-19T03:14:27.710Z,100519.01
2019-02-19T03:16:54.592Z,100515.75
2019-02-19T03:19:21.470Z,100520.94
2019-02-19T03:21:48.334Z,100519.16
2019-02-19T03:24:15.203Z,100518.45
2019-02-19T03:26:42.070Z,100522.67
2019-02-19T03:29:08.999Z,100520.28
2019-02-19T03:31:35.856Z,100514.05
2019-02-19T03:34:02.781Z,100525.04
2019-02-19T03:36:29.713Z,100525.75
2019-02-19T03:38:56.543Z,100522.34
2019-02-19T03:41:23.416Z,100533.85
2019-02-19T03:43:51.253Z,100527.04
2019-02-19T03:46:18.140Z,100532.80
2019-02-19T03:48:45.042Z,100533.97
2019-02-19T03:51:11.887Z,100536.45
2019-02-19T03:53:38.775Z,100541.02
2019-02-19T03:56:05.655Z,100538.08
2019-02-19T03:58:32.531Z,100547.17
2019-02-19T04:00:59.415Z,100543.93
2019-02-19T04:03:26.286Z,100544.28
2019-02-19T04:05:53.156Z,100550.46
2019-02-19T04:08:20.234Z,100548.06
2019-02-19T04:10:47.119Z,100550.87
2019-02-19T04:13:14.007Z,100549.11
2019-02-19T04:15:40.919Z,100546.55
2019-02-19T04:18:07.769Z,100540.31
2019-02-19T04:20:34.648Z,100538.13
2019-02-19T04:23:01.573Z,100543.72
2019-02-19T04:25:28.426Z,100543.62
2019-02-19T04:27:55.312Z,100543.80
2019-02-19T04:30:22.201Z,100541.50
2019-02-19T04:32:49.071Z,100546.47
2019-02-19T04:35:15.966Z,100540.73
2019-02-19T04:37:42.826Z,100546.00
2019-02-19T04:40:09.720Z,100541.94
2019-02-19T04:42:36.589Z,100546.22
2019-02-19T04:45:03.566Z,100541.86
2019-02-19T04:47:30.427Z,100543.62
2019-02-19T04:49:57.318Z,100544.58
2019-02-19T04:52:24.163Z,100543.78
2019-02-19T04:54:51.047Z,100542.59
2019-02-19T04:57:17.927Z,100539.29
2019-02-19T04:59:44.790Z,100535.66
2019-02-19T05:02:11.634Z,100548.84
2019-02-19T05:04:38.507Z,100554.08
2019-02-19T05:07:05.359Z,100540.45
2019-02-19T05:09:32.261Z,100548.67
2019-02-19T05:11:59.134Z,100536.95
2019-02-19T05:14:26.118Z,100542.60
2019-02-19T05:16:52.979Z,100542.32
2019-02-19T05:19:19.864Z,100550.20
2019-02-19T05:21:46.818Z,100547.98
2019-02-19T05:24:13.650Z,100554.33
2019-02-19T05:26:40.533Z,100559.11
2019-02-19T05:29:07.393Z,100551.84
2019-02-19T05:31:34.275Z,100549.16
2019-02-19T05:34:01.137Z,100554.07
2019-02-19T05:36:28.035Z,100553.66
2019-02-19T05:38:54.903Z,100556.41
2019-02-19T05:41:21.811Z,100555.81
2019-02-19T05:43:48.670Z,100569.43
2019-02-19T05:46:15.560Z,100561.18
2019-02-19T05:48:42.430Z,100560.06
2019-02-19T05:51:09.307Z,100557.72
2019-02-19T05:53:36.196Z,100559.57
2019-02-19T05:56:03.207Z,100556.05
2019-02-19T05:58:30.112Z,100555.34
2019-02-19T06:00:58.307Z,100556.13
2019-02-19T06:03:25.238Z,100555.20
2019-02-19T06:05:52.114Z,100561.31
2019-02-19T06:08:18.999Z,100562.47
2019-02-19T06:10:45.883Z,100567.23
2019-02-19T06:13:12.766Z,100569.41
2019-02-19T06:15:39.651Z,100575.27
2019-02-19T06:18:06.498Z,100581.83
2019-02-19T06:20:33.379Z,100584.42
2019-02-19T06:23:00.240Z,100580.59
2019-02-19T06:25:27.123Z,100581.91
2019-02-19T06:27:54.099Z,100585.92
2019-02-19T06:30:20.959Z,100583.47
2019-02-19T06:32:47.827Z,100587.94
2019-02-19T06:35:14.720Z,100591.88
2019-02-19T06:37:41.583Z,100593.16
2019-02-19T06:40:13.670Z,100593.98
2019-02-19T06:42:40.575Z,100597.29
2019-02-19T06:45:07.459Z,100593.70
2019-02-19T06:47:34.350Z,100592.27
2019-02-19T06:50:01.204Z,100594.04
2019-02-19T06:52:28.092Z,100591.39
2019-02-19T06:54:54.963Z,100600.70
2019-02-19T06:57:21.859Z,100604.15
2019-02-19T06:59:48.742Z,100600.30
2019-02-19T07:02:21.449Z,100608.02
2019-02-19T07:04:51.734Z,100609.45
2019-02-19T07:07:18.606Z,100604.69
2019-02-19T07:09:45.462Z,100609.02
2019-02-19T07:12:12.334Z,100620.12
2019-02-19T07:14:39.191Z,100630.34
2019-02-19T07:17:06.081Z,100640.30
2019-02-19T07:19:32.954Z,100646.92
2019-02-19T07:21:59.860Z,100650.77
2019-02-19T07:24:26.727Z,100648.76
2019-02-19T07:26:53.607Z,100651.48
2019-02-19T07:29:20.475Z,100646.70
2019-02-19T07:31:47.367Z,100654.17
2019-02-19T07:34:14.263Z,100650.11
2019-02-19T07:36:41.139Z,100657.86
2019-02-19T07:39:08.015Z,100653.96
2019-02-19T07:41:34.911Z,100655.42
2019-02-19T07:44:01.791Z,100661.19
2019-02-19T07:46:28.699Z,100668.38
2019-02-19T07:48:55.598Z,100672.68
2019-02-19T07:51:22.467Z,100679.62
2019-02-19T07:53:49.361Z,100679.85
2019-02-19T07:56:16.239Z,100685.73
2019-02-19T07:58:43.121Z,100681.69
2019-02-19T08:01:10.105Z,100687.23
2019-02-19T08:03:37.003Z,100688.25
2019-02-19T08:06:03.882Z,100692.35
2019-02-19T08:08:30.795Z,100693.73
2019-02-19T08:10:57.650Z,100694.72
2019-02-19T08:13:24.522Z,100700.45
2019-02-19T08:15:51.389Z,100692.66
2019-02-19T08:18:18.291Z,100699.23
2019-02-19T08:20:45.168Z,100701.13
2019-02-19T08:23:12.059Z,100706.13
2019-02-19T08:25:38.935Z,100705.55
2019-02-19T08:28:05.798Z,100710.89
2019-02-19T08:30:32.657Z,100716.00
2019-02-19T08:32:59.514Z,100719.58
2019-02-19T08:35:26.389Z,100724.63
2019-02-19T08:37:53.268Z,100724.91
2019-02-19T08:40:20.147Z,100722.55
2019-02-19T08:42:47.023Z,100718.47
2019-02-19T08:45:13.876Z,100717.55
2019-02-19T08:47:42.859Z,100719.55
2019-02-19T08:50:07.709Z,100712.24
2019-02-19T08:52:34.563Z,100715.37
2019-02-19T08:55:01.423Z,100721.01
2019-02-19T08:57:28.323Z,100720.86
2019-02-19T08:59:55.231Z,100725.52
2019-02-19T09:02:22.495Z,100720.05
2019-02-19T09:04:49.373Z,100725.93
2019-02-19T09:07:16.258Z,100733.56
2019-02-19T09:09:43.124Z,100733.86
2019-02-19T09:12:11.498Z,100741.23
2019-02-19T09:14:36.875Z,100753.91
2019-02-19T09:17:03.780Z,100748.21
2019-02-19T09:19:30.661Z,100758.41
2019-02-19T09:21:57.522Z,100752.31
2019-02-19T09:24:24.432Z,100761.86
2019-02-19T09:26:51.291Z,100755.72
2019-02-19T09:29:18.148Z,100756.15
2019-02-19T09:31:44.999Z,100770.98
2019-02-19T09:34:11.863Z,100775.19
2019-02-19T09:36:38.739Z,100778.78
2019-02-19T09:39:05.639Z,100785.08
2019-02-19T09:41:32.483Z,100783.51
2019-02-19T09:43:59.371Z,100789.13
2019-02-19T09:46:26.250Z,100789.66
2019-02-19T09:48:53.142Z,100788.48
2019-02-19T09:51:20.023Z,100796.02
2019-02-19T09:53:46.907Z,100792.75
2019-02-19T09:56:13.768Z,100799.72
2019-02-19T09:58:41.956Z,100795.44
2019-02-19T10:01:08.811Z,100798.86
2019-02-19T10:03:35.703Z,100805.80
2019-02-19T10:06:02.602Z,100801.36
2019-02-19T10:08:29.694Z,100805.38
2019-02-19T10:10:57.032Z,100802.44
2019-02-19T10:13:25.112Z,100811.72
2019-02-19T10:15:50.772Z,100815.70
2019-02-19T10:18:17.672Z,100815.48
2019-02-19T10:20:44.548Z,100807.09
2019-02-19T10:23:11.443Z,100813.33
2019-02-19T10:25:38.310Z,100817.61
2019-02-19T10:28:05.190Z,100821.26
2019-02-19T10:30:32.063Z,100819.31
2019-02-19T10:32:58.950Z,100825.74
2019-02-19T10:35:25.829Z,100827.28
2019-02-19T10:37:52.692Z,100828.81
2019-02-19T10:40:19.622Z,100841.84
2019-02-19T10:42:46.484Z,100845.62
2019-02-19T10:45:14.990Z,100853.80
2019-02-19T10:47:41.866Z,100856.88
2019-02-19T10:50:09.002Z,100849.83
2019-02-19T10:52:35.868Z,100844.74
2019-02-19T10:55:02.775Z,100841.08
2019-02-19T10:57:29.660Z,100848.16
2019-02-19T10:59:56.561Z,100849.58
2019-02-19T11:02:23.427Z,100850.16
2019-02-19T11:04:50.302Z,100849.93
2019-02-19T11:07:17.166Z,100855.13
2019-02-19T11:09:44.191Z,100847.69
2019-02-19T11:12:11.055Z,100846.73
2019-02-19T11:14:37.959Z,100841.31
2019-02-19T11:17:04.888Z,100844.59
2019-02-19T11:19:31.794Z,100836.45
2019-02-19T11:21:58.655Z,100830.89
2019-02-19T11:24:25.542Z,100840.17
2019-02-19T11:26:52.402Z,100841.74
2019-02-19T11:29:19.310Z,100846.70
2019-02-19T11:31:46.167Z,100842.83
2019-02-19T11:34:13.078Z,100835.28
2019-02-19T11:36:39.939Z,100840.87
2019-02-19T11:39:06.817Z,100828.89
2019-02-19T11:41:33.673Z,100833.47
2019-02-19T11:44:00.555Z,100828.72
2019-02-19T11:46:27.433Z,100820.11
2019-02-19T11:48:56.668Z,100814.97
2019-02-19T11:51:25.677Z,100819.23
2019-02-19T11:53:52.568Z,100825.90
2019-02-19T11:56:19.446Z,100824.50
2019-02-19T11:58:46.335Z,100821.56
2019-02-19T12:01:13.199Z,100825.77
2019-02-19T12:03:40.096Z,100820.58
2019-02-19T12:06:06.998Z,100820.42
2019-02-19T12:08:38.972Z,100820.61
2019-02-19T12:11:00.754Z,100818.56
2019-02-19T12:13:27.626Z,100805.25
2019-02-19T12:15:54.492Z,100806.87
2019-02-19T12:18:21.334Z,100806.00
2019-02-19T12:20:48.270Z,100794.62
2019-02-19T12:23:15.235Z,100792.08
2019-02-19T12:25:42.135Z,100796.25
2019-02-19T12:28:09.091Z,100790.44
2019-02-19T12:30:36.069Z,100787.76
2019-02-19T12:33:02.923Z,100785.74
2019-02-19T12:35:29.795Z,100792.45
2019-02-19T12:37:56.654Z,100791.48
2019-02-19T12:40:23.546Z,100787.75
2019-02-19T12:42:50.427Z,100788.34
2019-02-19T12:45:17.294Z,100782.98
2019-02-19T12:47:44.165Z,100780.49
2019-02-19T12:50:11.657Z,100785.67
2019-02-19T12:52:38.516Z,100781.20
2019-02-19T12:55:05.971Z,100781.59
2019-02-19T12:57:32.831Z,100772.66
2019-02-19T12:59:59.714Z,100761.91
2019-02-19T13:02:26.575Z,100777.09
2019-02-19T13:04:53.459Z,100775.77
2019-02-19T13:07:20.330Z,100771.33
2019-02-19T13:09:47.218Z,100770.13
2019-02-19T13:12:14.127Z,100774.16
2019-02-19T13:14:42.243Z,100763.72
2019-02-19T13:17:08.845Z,100759.23
2019-02-19T13:19:35.742Z,100759.81
2019-02-19T13:22:02.723Z,100763.14
2019-02-19T13:24:29.678Z,100766.22
2019-02-19T13:26:56.546Z,100770.56
2019-02-19T13:29:23.399Z,100764.34
2019-02-19T13:31:50.305Z,100760.87
2019-02-19T13:34:17.171Z,100754.95
2019-02-19T13:36:44.034Z,100753.39
2019-02-19T13:39:10.919Z,100747.10
2019-02-19T13:41:37.858Z,100763.38
2019-02-19T13:44:04.727Z,100758.94
2019-02-19T13:46:31.603Z,100758.42
2019-02-19T13:48:58.472Z,100752.16
2019-02-19T13:51:25.353Z,100757.58
2019-02-19T13:54:00.514Z,100756.95
2019-02-19T13:56:27.412Z,100751.25
2019-02-19T13:58:54.275Z,100751.45
2019-02-19T14:01:21.158Z,100759.48
2019-02-19T14:03:48.019Z,100755.09
2019-02-19T14:06:14.906Z,100752.00
2019-02-19T14:08:41.743Z,100747.62
2019-02-19T14:11:08.684Z,100754.61
2019-02-19T14:13:35.551Z,100753.81
2019-02-19T14:16:13.914Z,100746.38
2019-02-19T14:18:51.071Z,100733.89
2019-02-19T14:21:42.574Z,100744.55
2019-02-19T14:24:28.071Z,100749.09
2019-02-19T14:27:00.789Z,100750.98
2019-02-19T14:29:33.480Z,100747.36
2019-02-19T14:32:15.496Z,100747.70
2019-02-19T14:34:48.207Z,100746.59
2019-02-19T14:37:26.137Z,100749.80
2019-02-19T14:39:58.669Z,100752.52
2019-02-19T14:42:31.386Z,100755.17
2019-02-19T14:45:19.854Z,100760.59
2019-02-19T14:48:06.322Z,100759.47
2019-02-19T14:50:44.874Z,100757.97
2019-02-19T14:53:17.514Z,100753.67
2019-02-19T14:55:50.278Z,100752.48
2019-02-19T14:58:36.604Z,100749.95
2019-02-19T15:01:09.202Z,100763.27
2019-02-19T15:03:56.545Z,100765.15
2019-02-19T15:06:43.114Z,100754.52
2019-02-19T15:09:31.357Z,100756.06
2019-02-19T15:12:14.491Z,100750.80
2019-02-19T15:14:46.364Z,100757.59
2019-02-19T15:17:19.094Z,100760.81
2019-02-19T15:19:51.823Z,100761.88
2019-02-19T15:22:28.186Z,100765.73
2019-02-19T15:25:04.935Z,100764.84
2019-02-19T15:27:44.694Z,100764.64
2019-02-19T15:30:32.988Z,100769.02
2019-02-19T15:33:08.699Z,100769.86
2019-02-19T15:35:50.143Z,100765.59
2019-02-19T15:38:37.414Z,100754.64
2019-02-19T15:41:23.967Z,100749.88
2019-02-19T15:44:16.455Z,100755.02
2019-02-19T15:46:53.310Z,100759.23
2019-02-19T15:49:47.554Z,100766.85
2019-02-19T15:52:20.255Z,100772.23
2019-02-19T15:55:03.127Z,100767.30
2019-02-19T15:57:35.735Z,100768.50
2019-02-19T16:00:25.160Z,100762.27
2019-02-19T16:02:57.222Z,100760.62
2019-02-19T16:05:40.675Z,100765.69
2019-02-19T16:08:18.657Z,100766.77
2019-02-19T16:10:51.286Z,100777.09
2019-02-19T16:13:26.581Z,100772.80
2019-02-19T16:15:59.190Z,100767.23
2019-02-19T16:18:33.797Z,100773.00
2019-02-19T16:21:21.010Z,100769.19
2019-02-19T16:24:03.003Z,100780.06
2019-02-19T16:26:35.658Z,100785.47
2019-02-19T16:29:08.306Z,100785.34
2019-02-19T16:31:54.730Z,100781.47
2019-02-19T16:34:32.632Z,100787.88
2019-02-19T16:37:12.531Z,100791.77
2019-02-19T16:39:59.814Z,100794.80
2019-02-19T16:42:40.993Z,100790.30
2019-02-19T16:45:19.706Z,100799.66
2019-02-19T16:47:50.250Z,100793.81
2019-02-19T16:50:23.926Z,100797.56
2019-02-19T16:53:04.262Z,100789.73
2019-02-19T16:55:53.777Z,100792.48
2019-02-19T16:58:35.298Z,100791.42
2019-02-19T17:01:06.814Z,100790.62
2019-02-19T17:03:42.058Z,100790.04
2019-02-19T17:06:18.525Z,100789.80
2019-02-19T17:08:51.050Z,100797.70
2019-02-19T17:11:37.494Z,100804.55
2019-02-19T17:14:10.086Z,100800.31
2019-02-19T17:16:57.331Z,100808.80
2019-02-19T17:19:45.646Z,100811.99
2019-02-19T17:22:32.114Z,100810.69
2019-02-19T17:25:11.286Z,100813.75
2019-02-19T17:27:53.505Z,100814.57
2019-02-19T17:30:31.057Z,100816.81
2019-02-19T17:33:07.249Z,100819.03
2019-02-19T17:35:57.622Z,100820.57
2019-02-19T17:38:30.730Z,100825.17
2019-02-19T17:41:03.528Z,100826.12
2019-02-19T17:43:51.763Z,100826.48
2019-02-19T17:46:29.318Z,100834.48
2019-02-19T17:49:05.657Z,100840.61
2019-02-19T17:51:57.942Z,100843.06
2019-02-19T17:54:31.353Z,100845.59
2019-02-19T17:57:04.825Z,100849.83
2019-02-19T17:59:40.691Z,100844.53
2019-02-19T18:02:13.278Z,100847.17
2019-02-19T18:04:54.827Z,100857.77
2019-02-19T18:07:35.627Z,100854.00
2019-02-19T18:10:18.850Z,100853.34
2019-02-19T18:13:08.373Z,100851.16
2019-02-19T18:15:40.878Z,100859.25
2019-02-19T18:18:13.528Z,100854.63
2019-02-19T18:20:47.325Z,100862.29
2019-02-19T18:23:07.230Z,100863.64
2019-02-19T18:25:34.116Z,100862.91
2019-02-19T18:28:01.027Z,100866.81
2019-02-19T18:30:27.870Z,100869.27
2019-02-19T18:32:54.726Z,100867.59
2019-02-19T18:35:21.590Z,100873.63
2019-02-19T18:37:48.424Z,100873.96
2019-02-19T18:40:15.386Z,100868.26
2019-02-19T18:42:42.218Z,100863.39
2019-02-19T18:45:09.092Z,100869.08
2019-02-19T18:47:35.927Z,100871.09
2019-02-19T18:50:03.330Z,100873.33
2019-02-19T18:52:30.171Z,100873.19
2019-02-19T18:54:57.030Z,100868.95
2019-02-19T18:57:23.863Z,100867.98
2019-02-19T18:59:50.730Z,100868.98
2019-02-19T19:02:17.581Z,100873.65
2019-02-19T19:04:44.451Z,100880.11
2019-02-19T19:07:11.323Z,100876.90
2019-02-19T19:09:38.181Z,100878.48
2019-02-19T19:12:05.022Z,100881.87
2019-02-19T19:14:31.912Z,100901.51
2019-02-19T19:16:59.637Z,100888.42
2019-02-19T19:19:28.043Z,100890.18
2019-02-19T19:21:54.882Z,100893.33
2019-02-19T19:24:21.729Z,100901.16
2019-02-19T19:26:48.575Z,100900.88
2019-02-19T19:29:15.491Z,100897.88
2019-02-19T19:31:42.331Z,100902.44
2019-02-19T19:34:09.190Z,100905.23
2019-02-19T19:36:36.031Z,100899.85
2019-02-19T19:39:04.138Z,100908.86
2019-02-19T19:41:31.184Z,100906.78
2019-02-19T19:43:58.066Z,100912.89
2019-02-19T19:46:24.913Z,100911.03
2019-02-19T19:48:51.774Z,100914.28
2019-02-19T19:51:18.650Z,100909.81
2019-02-19T19:53:45.490Z,100917.17
2019-02-19T19:56:12.338Z,100913.98
2019-02-19T19:58:39.166Z,100919.70
2019-02-19T20:01:06.031Z,100915.69
2019-02-19T20:03:32.893Z,100915.16
2019-02-19T20:05:59.761Z,100918.66
2019-02-19T20:08:26.707Z,100916.73
2019-02-19T20:10:53.614Z,100915.08
2019-02-19T20:13:20.463Z,100912.48
2019-02-19T20:15:47.433Z,100915.53
2019-02-19T20:18:14.301Z,100917.83
2019-02-19T20:20:41.241Z,100918.72
2019-02-19T20:23:08.112Z,100921.24
2019-02-19T20:25:34.991Z,100927.78
2019-02-19T20:28:01.889Z,100934.77
2019-02-19T20:30:28.774Z,100928.53
2019-02-19T20:32:55.606Z,100933.30
2019-02-19T20:35:22.525Z,100935.33
2019-02-19T20:37:53.923Z,100930.90
2019-02-19T20:40:16.202Z,100935.61
2019-02-19T20:42:43.116Z,100939.48
2019-02-19T20:45:10.095Z,100936.70
2019-02-19T20:47:36.964Z,100938.75
2019-02-19T20:50:04.085Z,100937.92
2019-02-19T20:52:30.962Z,100939.40
2019-02-19T20:54:57.815Z,100936.17
2019-02-19T20:57:24.688Z,100941.87
2019-02-19T20:59:51.595Z,100945.73
2019-02-19T21:02:18.455Z,100946.94
2019-02-19T21:04:45.299Z,100950.16
2019-02-19T21:07:12.177Z,100946.47
2019-02-19T21:09:43.797Z,100948.60
2019-02-19T21:12:05.993Z,100955.97
2019-02-19T21:14:32.842Z,100956.14
2019-02-19T21:16:59.716Z,100951.95
2019-02-19T21:19:26.538Z,100960.15
2019-02-19T21:21:53.383Z,100951.15
2019-02-19T21:24:20.246Z,100950.05
2019-02-19T21:26:47.115Z,100946.38
2019-02-19T21:29:13.973Z,100946.84
2019-02-19T21:31:40.830Z,100942.62
2019-02-19T21:34:07.685Z,100944.00
2019-02-19T21:36:34.598Z,100949.69
2019-02-19T21:39:01.434Z,100948.42
2019-02-19T21:41:28.295Z,100938.55
2019-02-19T21:43:55.130Z,100941.02
2019-02-19T21:46:21.982Z,100938.75
2019-02-19T21:48:48.811Z,100939.84
2019-02-19T21:51:15.658Z,100935.25
2019-02-19T21:53:42.485Z,100939.20
2019-02-19T21:56:09.334Z,100937.64
2019-02-19T21:58:36.654Z,100938.61
2019-02-19T22:01:03.510Z,100945.46
2019-02-19T22:03:30.350Z,100936.62
2019-02-19T22:05:57.214Z,100943.94
2019-02-19T22:08:24.066Z,100935.84
2019-02-19T22:10:50.958Z,100941.34
2019-02-19T22:13:17.809Z,100937.38
2019-02-19T22:15:44.651Z,100944.42
2019-02-19T22:18:11.634Z,100943.50
2019-02-19T22:20:44.385Z,100945.01
2019-02-19T22:23:11.233Z,100941.95
2019-02-19T22:25:38.075Z,100948.66
2019-02-19T22:28:05.967Z,100945.89
2019-02-19T22:30:31.770Z,100941.01
2019-02-19T22:32:58.630Z,100942.06
2019-02-19T22:35:25.466Z,100941.66
2019-02-19T22:37:52.338Z,100938.63
2019-02-19T22:40:19.235Z,100940.66
2019-02-19T22:42:46.154Z,100940.48
2019-02-19T22:45:12.995Z,100934.63
2019-02-19T22:47:39.844Z,100948.30
2019-02-19T22:50:07.092Z,100940.38
2019-02-19T22:52:33.750Z,100944.52
2019-02-19T22:55:09.094Z,100948.75
2019-02-19T22:57:35.980Z,100948.29
2019-02-19T23:00:03.050Z,100951.03
2019-02-19T23:02:31.269Z,100957.55
2019-02-19T23:04:58.138Z,100954.44
2019-02-19T23:07:24.997Z,100958.49
2019-02-19T23:09:51.841Z,100954.52
2019-02-19T23:12:18.681Z,100957.18
2019-02-19T23:14:45.510Z,100957.41
2019-02-19T23:17:12.434Z,100960.48
2019-02-19T23:19:39.281Z,100959.70
2019-02-19T23:22:06.134Z,100959.64
2019-02-19T23:24:33.135Z,100964.33
2019-02-19T23:27:00.001Z,100964.86
2019-02-19T23:29:26.833Z,100965.35
2019-02-19T23:31:53.712Z,100963.00
2019-02-19T23:34:20.538Z,100969.72
2019-02-19T23:36:53.454Z,100952.56
2019-02-19T23:39:20.671Z,100958.47
2019-02-19T23:41:47.615Z,100956.66
2019-02-19T23:44:14.478Z,100956.90
2019-02-19T23:46:41.320Z,100957.66
2019-02-19T23:49:08.173Z,100968.55
2019-02-19T23:51:34.994Z,100968.70
2019-02-19T23:54:01.858Z,100970.02
2019-02-19T23:56:28.699Z,100974.77
2019-02-19T23:58:55.554Z,100969.84
